Time;durP1;ratioP1;P1;durP2;ratioP2;P2;SDS_P1;SDS_P2;PMS_P1;PMS_P2;Temp;Humidity;BMP_temperature;BMP_pressure;BME280_temperature;BME280_humidity;BME280_pressure;Samples;Min_cycle;Max_cycle;Signal;HPM_P1;HPM_P2
2021/06/30 00:00:18;;;;;;;6.73;2.90;;;;;;;17.46;59.45;100545.78;5002125;28;20125;-61
2021/06/30 00:02:50;;;;;;;9.13;3.43;;;;;;;17.49;59.40;100545.13;4990688;28;20054;-64
2021/06/30 00:05:22;;;;;;;6.55;3.55;;;;;;;17.45;59.76;100536.47;4991066;28;20114;-61
2021/06/30 00:07:51;;;;;;;13.63;4.27;;;;;;;17.38;59.28;100521.19;4995877;28;20400;-64
2021/06/30 00:10:23;;;;;;;9.50;3.87;;;;;;;17.46;59.56;100540.13;4993005;28;20319;-63
2021/06/30 00:12:55;;;;;;;8.77;3.42;;;;;;;17.45;59.48;100542.13;4991540;28;20354;-65
2021/06/30 00:15:30;;;;;;;7.63;3.60;;;;;;;17.46;59.68;100537.31;4997731;28;20133;-65
2021/06/30 00:18:02;;;;;;;9.63;3.93;;;;;;;17.45;59.59;100524.38;4986289;28;20075;-63
2021/06/30 00:20:35;;;;;;;8.17;3.60;;;;;;;17.42;59.99;100528.66;4979086;28;20137;-64
2021/06/30 00:23:09;;;;;;;11.17;3.00;;;;;;;17.28;59.85;100514.69;4984463;28;20174;-64
2021/06/30 00:25:42;;;;;;;13.68;3.38;;;;;;;17.01;59.88;100476.22;4992749;28;20137;-64
2021/06/30 00:28:14;;;;;;;7.30;3.23;;;;;;;17.30;59.92;100522.84;4995409;28;20050;-65
2021/06/30 00:30:46;;;;;;;10.67;4.13;;;;;;;17.37;59.85;100525.19;4984236;28;20055;-65
2021/06/30 00:33:18;;;;;;;6.97;3.70;;;;;;;17.36;59.74;100523.50;4997928;28;20074;-64
2021/06/30 00:35:50;;;;;;;13.13;3.87;;;;;;;17.19;60.13;100504.50;4991578;28;20503;-63
2021/06/30 00:38:21;;;;;;;9.90;4.20;;;;;;;17.22;59.99;100518.78;4988741;28;20082;-64
2021/06/30 00:40:53;;;;;;;12.90;3.57;;;;;;;17.21;60.28;100527.59;4988559;28;20142;-63
2021/06/30 00:43:26;;;;;;;8.17;3.93;;;;;;;17.21;60.46;100517.13;4993640;28;20121;-64
2021/06/30 00:45:57;;;;;;;9.73;3.57;;;;;;;17.25;60.30;100514.50;4988113;28;20086;-64
2021/06/30 00:48:29;;;;;;;6.80;3.33;;;;;;;17.25;60.35;100523.78;4983379;28;20073;-64
2021/06/30 00:51:01;;;;;;;11.27;3.90;;;;;;;17.25;60.46;100520.97;4996149;28;20057;-64
2021/06/30 00:53:33;;;;;;;7.20;3.50;;;;;;;17.33;60.37;100510.03;4995027;28;20125;-64
2021/06/30 00:56:05;;;;;;;6.90;3.23;;;;;;;17.42;60.49;100508.06;4978472;28;20077;-63
2021/06/30 00:58:36;;;;;;;10.10;3.80;;;;;;;17.48;59.96;100512.41;4983720;28;20138;-62
2021/06/30 01:01:08;;;;;;;8.83;3.20;;;;;;;17.31;60.41;100512.38;4984820;28;20122;-62
2021/06/30 01:03:40;;;;;;;11.52;3.65;;;;;;;17.22;60.73;100499.03;4986848;28;20120;-61
2021/06/30 01:06:12;;;;;;;10.17;3.93;;;;;;;17.19;60.67;100502.50;4986083;28;20486;-63
2021/06/30 01:08:44;;;;;;;9.23;3.55;;;;;;;17.16;61.07;100491.91;4988699;28;20508;-62
2021/06/30 01:11:16;;;;;;;10.23;4.37;;;;;;;17.09;61.35;100499.97;4999679;28;20490;-61
2021/06/30 01:13:48;;;;;;;9.20;3.57;;;;;;;16.86;61.82;100461.75;4990476;28;20038;-64
2021/06/30 01:16:20;;;;;;;9.40;3.83;;;;;;;17.06;61.92;100500.66;5004035;28;20410;-65
2021/06/30 01:18:52;;;;;;;11.83;4.23;;;;;;;16.98;61.63;100490.97;4984318;28;20105;-64
2021/06/30 01:21:23;;;;;;;8.83;3.67;;;;;;;17.02;61.57;100493.97;4984933;28;20482;-63
2021/06/30 01:23:55;;;;;;;11.83;3.70;;;;;;;17.06;61.16;100500.66;4994116;28;20406;-63
2021/06/30 01:26:27;;;;;;;15.57;4.90;;;;;;;17.05;61.80;100496.16;4981970;28;20078;-64
2021/06/30 01:29:00;;;;;;;8.13;3.57;;;;;;;16.97;61.85;100488.50;4978716;28;20087;-66
2021/06/30 01:31:32;;;;;;;17.00;5.10;;;;;;;16.93;61.92;100495.97;4989752;28;20109;-64
2021/06/30 01:34:04;;;;;;;8.73;4.27;;;;;;;16.97;61.64;100492.16;4989486;28;20474;-64
2021/06/30 01:36:52;;;;;;;9.03;4.67;;;;;;;17.11;61.30;100486.41;5001027;28;20061;-66
2021/06/30 01:39:24;;;;;;;15.23;4.13;;;;;;;17.01;61.29;100476.22;4996112;28;20413;-68
2021/06/30 01:41:57;;;;;;;12.27;3.90;;;;;;;16.98;61.14;100476.03;4981349;28;20054;-68
2021/06/30 01:44:29;;;;;;;16.70;5.00;;;;;;;16.88;61.62;100484.78;4981761;28;20606;-68
2021/06/30 01:47:01;;;;;;;8.90;4.17;;;;;;;16.85;61.33;100483.44;4981082;28;20075;-68
2021/06/30 01:49:32;;;;;;;12.40;3.43;;;;;;;16.84;61.68;100486.59;4980928;28;20519;-68
2021/06/30 01:52:04;;;;;;;7.53;4.20;;;;;;;16.80;61.60;100484.44;4992762;28;20094;-69
2021/06/30 01:54:36;;;;;;;9.93;4.30;;;;;;;16.74;61.83;100474.44;4994646;28;20077;-70
2021/06/30 01:57:08;;;;;;;15.70;4.27;;;;;;;16.88;61.49;100482.81;4996132;28;20100;-70
2021/06/30 01:59:40;;;;;;;11.03;4.40;;;;;;;16.88;61.77;100479.16;4980412;28;20388;-70
2021/06/30 02:02:12;;;;;;;10.87;4.20;;;;;;;16.98;61.77;100471.22;4979083;28;20046;-70
2021/06/30 02:05:06;;;;;;;9.10;4.73;;;;;;;17.11;61.44;100475.09;4984933;28;20050;-70
2021/06/30 02:07:39;;;;;;;11.93;5.30;;;;;;;17.16;61.30;100472.16;4991000;28;20137;-71
2021/06/30 02:10:11;;;;;;;13.47;5.23;;;;;;;17.37;61.17;100471.56;4988416;28;20050;-72
2021/06/30 02:12:44;;;;;;;14.73;6.13;;;;;;;17.34;60.96;100469.38;4993004;28;20125;-68
2021/06/30 02:15:19;;;;;;;12.30;3.95;;;;;;;17.13;60.81;100438.94;4991187;28;20080;-66
2021/06/30 02:17:52;;;;;;;11.18;4.60;;;;;;;17.22;61.16;100470.81;4982740;28;20470;-66
2021/06/30 02:20:24;;;;;;;10.43;4.40;;;;;;;17.18;61.18;100469.81;5002557;28;20121;-67
2021/06/30 02:22:57;;;;;;;9.50;4.60;;;;;;;17.11;61.21;100472.28;4991831;28;20521;-72
2021/06/30 02:25:30;;;;;;;8.65;4.43;;;;;;;17.07;61.40;100464.81;4987503;28;20506;-72
2021/06/30 02:28:02;;;;;;;18.55;5.47;;;;;;;17.01;61.18;100472.59;4992025;28;20133;-64
2021/06/30 02:30:35;;;;;;;11.23;5.60;;;;;;;16.78;61.17;100444.44;4980176;28;20129;-63
2021/06/30 02:33:07;;;;;;;8.03;4.23;;;;;;;16.94;61.53;100464.59;4989000;28;20104;-63
2021/06/30 02:35:41;;;;;;;11.93;4.60;;;;;;;16.97;61.33;100477.22;4983287;28;20042;-63
2021/06/30 02:38:13;;;;;;;15.67;5.83;;;;;;;16.94;61.37;100469.41;4987879;28;20559;-63
2021/06/30 02:40:45;;;;;;;15.40;4.83;;;;;;;16.81;61.48;100460.72;4989056;28;20066;-63
2021/06/30 02:43:17;;;;;;;11.70;5.93;;;;;;;16.91;61.52;100475.69;4992900;28;20151;-64
2021/06/30 02:45:49;;;;;;;11.23;4.13;;;;;;;16.80;61.84;100461.88;4978732;28;20157;-64
2021/06/30 02:48:21;;;;;;;13.33;5.67;;;;;;;17.05;61.79;100465.13;4977404;28;20089;-66
2021/06/30 02:50:54;;;;;;;11.33;4.80;;;;;;;17.37;61.47;100468.72;4975406;28;20097;-66
2021/06/30 02:53:26;;;;;;;8.45;4.07;;;;;;;17.54;61.01;100460.28;4980731;28;20050;-66
2021/06/30 02:56:01;;;;;;;9.07;3.87;;;;;;;17.89;61.04;100463.16;4990919;28;20039;-66
2021/06/30 02:58:34;;;;;;;12.20;5.20;;;;;;;18.20;60.13;100466.66;4991782;28;20074;-67
2021/06/30 03:01:06;;;;;;;10.60;4.35;;;;;;;18.38;59.74;100473.09;4990164;28;20789;-67
2021/06/30 03:03:37;;;;;;;10.30;4.60;;;;;;;18.30;59.49;100468.28;4988131;28;20565;-66
2021/06/30 03:06:09;;;;;;;6.70;3.58;;;;;;;18.44;59.71;100468.94;4983125;28;20054;-69
2021/06/30 03:08:41;;;;;;;16.02;5.25;;;;;;;18.41;59.40;100471.59;4982197;28;20050;-66
2021/06/30 03:11:13;;;;;;;13.68;5.20;;;;;;;18.06;59.54;100454.69;4986501;28;20987;-65
2021/06/30 03:13:45;;;;;;;11.43;5.32;;;;;;;17.96;59.77;100469.97;4986581;28;20125;-66
2021/06/30 03:16:17;;;;;;;10.93;5.28;;;;;;;18.06;60.32;100463.16;4980245;28;20054;-66
2021/06/30 03:18:49;;;;;;;9.45;4.38;;;;;;;18.29;59.83;100457.31;4977380;28;20519;-66
2021/06/30 03:21:21;;;;;;;9.38;3.90;;;;;;;18.52;60.15;100469.25;4990787;28;20046;-67
2021/06/30 03:23:52;;;;;;;11.50;5.82;;;;;;;18.66;59.65;100461.38;4973967;28;20638;-70
2021/06/30 03:26:25;;;;;;;16.27;5.35;;;;;;;18.85;58.97;100466.69;4986994;28;20074;-70
2021/06/30 03:29:00;;;;;;;12.50;5.50;;;;;;;18.44;59.04;100453.97;4976431;28;20097;-71
2021/06/30 03:31:32;;;;;;;10.85;4.60;;;;;;;18.43;60.08;100470.09;4980142;28;20046;-72
2021/06/30 03:34:04;;;;;;;11.20;5.07;;;;;;;18.42;59.74;100450.63;4982600;28;20577;-73
2021/06/30 03:36:36;;;;;;;15.18;5.18;;;;;;;18.41;59.98;100471.59;4993658;28;20109;-69
2021/06/30 03:39:07;;;;;;;7.97;4.20;;;;;;;18.52;59.84;100464.41;4995201;28;20074;-66
2021/06/30 03:41:39;;;;;;;13.25;4.15;;;;;;;18.21;59.43;100467.47;4978958;28;20059;-67
2021/06/30 03:44:11;;;;;;;16.05;4.78;;;;;;;18.19;60.44;100470.63;4991743;28;20092;-67
2021/06/30 03:46:43;;;;;;;8.40;4.10;;;;;;;18.57;60.00;100458.59;4990835;28;20046;-67
2021/06/30 03:49:14;;;;;;;14.52;4.93;;;;;;;18.98;59.44;100467.66;4986243;28;20046;-67
2021/06/30 03:51:46;;;;;;;10.95;4.75;;;;;;;18.99;58.61;100475.78;4983007;28;20112;-67
2021/06/30 03:54:18;;;;;;;11.48;4.20;;;;;;;18.92;58.71;100452.84;4986273;28;20077;-68
2021/06/30 03:56:53;;;;;;;6.63;3.35;;;;;;;19.05;58.68;100465.94;4994425;28;20079;-68
2021/06/30 03:59:25;;;;;;;11.35;4.05;;;;;;;18.98;58.47;100434.50;4998629;28;20097;-68
2021/06/30 04:01:58;;;;;;;10.80;4.32;;;;;;;19.36;58.03;100467.63;4980802;28;20126;-68
2021/06/30 04:04:30;;;;;;;6.18;3.35;;;;;;;19.56;58.00;100475.31;4987205;28;20121;-64
2021/06/30 04:07:02;;;;;;;9.43;3.80;;;;;;;19.61;57.98;100468.63;4997011;28;20074;-64
2021/06/30 04:09:34;;;;;;;11.43;4.80;;;;;;;19.68;57.36;100462.44;4987087;28;20127;-63
2021/06/30 04:12:06;;;;;;;8.85;3.88;;;;;;;19.84;57.96;100472.00;4986433;28;20050;-66
2021/06/30 04:14:38;;;;;;;15.20;4.20;;;;;;;19.98;57.22;100469.72;4985991;28;20134;-67
2021/06/30 04:17:09;;;;;;;9.00;5.13;;;;;;;19.86;56.83;100436.47;4994793;28;20049;-65
2021/06/30 04:19:41;;;;;;;9.55;4.03;;;;;;;19.84;56.78;100438.00;4981765;28;20105;-64
2021/06/30 04:22:13;;;;;;;14.50;4.03;;;;;;;20.07;56.61;100476.13;5005366;28;20081;-67
2021/06/30 04:24:45;;;;;;;8.55;3.90;;;;;;;20.01;56.47;100471.03;4987655;28;20069;-66
2021/06/30 04:27:16;;;;;;;10.50;4.97;;;;;;;19.71;56.31;100485.25;5008653;28;20062;-69
2021/06/30 04:29:48;;;;;;;15.52;4.90;;;;;;;19.63;56.59;100480.47;5007418;28;20066;-71
2021/06/30 04:32:20;;;;;;;13.88;5.88;;;;;;;19.32;56.07;100483.63;4987555;28;20116;-70
2021/06/30 04:34:52;;;;;;;12.02;5.72;;;;;;;18.80;56.84;100478.19;4980902;28;20135;-69
2021/06/30 04:37:23;;;;;;;11.30;6.15;;;;;;;18.65;57.16;100480.34;4997110;28;20089;-69
2021/06/30 04:39:55;;;;;;;9.60;5.97;;;;;;;18.45;56.92;100472.59;4984335;28;20050;-63
2021/06/30 04:42:27;;;;;;;14.23;5.57;;;;;;;18.15;57.23;100478.13;4987637;28;20054;-63
2021/06/30 04:44:59;;;;;;;15.18;5.40;;;;;;;17.90;57.85;100487.44;4984239;28;20129;-63
2021/06/30 04:47:29;;;;;;;;;;;;;;;17.63;57.77;100492.19;4988773;28;20043;-62
2021/06/30 04:50:00;;;;;;;11.80;5.40;;;;;;;17.02;58.08;100441.22;4992395;28;19960;-62
2021/06/30 04:52:32;;;;;;;9.18;5.90;;;;;;;17.06;59.20;100486.56;4997583;28;20130;-62
2021/06/30 04:55:06;;;;;;;16.13;5.93;;;;;;;16.88;59.34;100481.97;4995291;28;20104;-62
2021/06/30 04:57:38;;;;;;;10.25;5.22;;;;;;;16.64;59.65;100477.50;4980343;28;20514;-63
2021/06/30 05:00:10;;;;;;;13.80;7.57;;;;;;;16.48;59.90;100490.38;4996878;28;20077;-63
2021/06/30 05:02:42;;;;;;;12.03;6.30;;;;;;;16.30;60.10;100481.78;4987817;28;20096;-63
2021/06/30 05:05:14;;;;;;;14.60;6.57;;;;;;;16.24;60.50;100491.53;4978209;28;20081;-62
2021/06/30 05:07:46;;;;;;;13.77;6.27;;;;;;;15.98;60.93;100465.13;5001706;28;20051;-64
2021/06/30 05:10:18;;;;;;;9.90;5.40;;;;;;;16.10;61.24;100485.97;4991540;28;20097;-64
2021/06/30 05:12:50;;;;;;;12.67;6.43;;;;;;;15.86;61.32;100429.94;4986378;28;20050;-63
2021/06/30 05:15:22;;;;;;;21.97;6.33;;;;;;;16.10;61.40;100485.97;4994978;28;20105;-63
2021/06/30 05:17:54;;;;;;;16.60;6.50;;;;;;;15.89;61.77;100467.88;4990266;28;20053;-63
2021/06/30 05:20:26;;;;;;;15.57;7.07;;;;;;;15.75;61.82;100462.28;5009602;28;20050;-63
2021/06/30 05:22:58;;;;;;;18.50;9.17;;;;;;;15.83;62.40;100489.69;4998280;28;20070;-67
2021/06/30 05:25:30;;;;;;;25.47;10.07;;;;;;;15.82;62.84;100487.19;4981343;28;20100;-65
2021/06/30 05:28:02;;;;;;;19.53;9.37;;;;;;;15.96;62.98;100492.78;4987199;28;20105;-64
2021/06/30 05:30:34;;;;;;;21.33;10.23;;;;;;;16.05;62.85;100493.69;4985772;28;20126;-60
2021/06/30 05:33:05;;;;;;;19.10;9.70;;;;;;;15.98;63.17;100487.66;4993769;28;20648;-60
2021/06/30 05:35:37;;;;;;;18.03;9.07;;;;;;;16.09;63.29;100494.72;4984790;28;20042;-59
2021/06/30 05:38:09;;;;;;;20.23;10.33;;;;;;;16.39;62.92;100497.94;4998469;28;20149;-59
2021/06/30 05:40:41;;;;;;;16.97;8.73;;;;;;;16.40;62.75;100483.50;4983878;28;20130;-59
2021/06/30 05:43:12;;;;;;;16.33;9.10;;;;;;;16.40;62.60;100479.84;4996069;28;20129;-58
2021/06/30 05:45:46;;;;;;;18.43;9.17;;;;;;;16.27;62.68;100468.34;4986411;28;20484;-60
2021/06/30 05:48:18;;;;;;;17.63;8.43;;;;;;;16.34;62.58;100484.78;4990329;28;20069;-60
2021/06/30 05:50:50;;;;;;;15.33;8.80;;;;;;;16.42;62.69;100486.84;4983083;28;20074;-63
2021/06/30 05:53:17;;;;;;;16.50;8.63;;;;;;;16.48;62.62;100490.38;4989096;28;20495;-64
2021/06/30 05:55:49;;;;;;;17.23;7.20;;;;;;;16.53;62.62;100464.84;4974555;28;20046;-64
2021/06/30 05:58:21;;;;;;;16.60;7.30;;;;;;;16.85;62.49;100483.44;4980241;28;20133;-65
2021/06/30 06:00:53;;;;;;;14.67;7.77;;;;;;;16.92;62.48;100491.44;4991387;28;20054;-65
2021/06/30 06:03:24;;;;;;;11.70;4.33;;;;;;;16.79;62.38;100467.84;4987234;28;20125;-64
2021/06/30 06:05:56;;;;;;;13.70;7.27;;;;;;;16.83;62.48;100487.78;4979423;28;20468;-69
2021/06/30 06:08:28;;;;;;;9.83;6.80;;;;;;;16.78;62.32;100481.09;4985714;28;20142;-65
2021/06/30 06:11:00;;;;;;;15.38;7.07;;;;;;;16.64;62.78;100440.84;4984765;28;20471;-62
2021/06/30 06:13:32;;;;;;;13.20;8.03;;;;;;;17.13;62.17;100461.53;4990136;28;20046;-59
2021/06/30 06:16:04;;;;;;;16.03;8.77;;;;;;;17.18;62.02;100475.47;4984525;28;20133;-63
2021/06/30 06:18:36;;;;;;;23.43;12.67;;;;;;;17.18;61.81;100481.09;4983774;28;20152;-64
2021/06/30 06:21:08;;;;;;;26.57;15.63;;;;;;;17.17;61.51;100475.81;4978388;28;20146;-60
2021/06/30 06:23:40;;;;;;;36.73;16.70;;;;;;;17.41;61.05;100484.66;4989678;28;20047;-63
2021/06/30 06:26:13;;;;;;;31.10;16.40;;;;;;;17.60;60.75;100481.53;4976542;28;20078;-62
2021/06/30 06:28:47;;;;;;;26.27;13.98;;;;;;;17.92;60.60;100485.94;4980674;28;20046;-63
2021/06/30 06:31:19;;;;;;;25.98;11.15;;;;;;;18.10;60.03;100471.81;4975468;28;20060;-63
2021/06/30 06:33:51;;;;;;;19.05;10.45;;;;;;;18.26;59.71;100480.63;4985116;28;20046;-62
2021/06/30 06:36:24;;;;;;;21.23;9.70;;;;;;;18.65;59.44;100483.19;4991673;28;20070;-61
2021/06/30 06:38:56;;;;;;;22.13;10.55;;;;;;;18.74;58.76;100485.22;4985260;28;20104;-61
2021/06/30 06:41:28;;;;;;;18.52;9.18;;;;;;;18.90;58.68;100484.28;4986876;28;20418;-61
2021/06/30 06:43:59;;;;;;;16.23;8.75;;;;;;;18.96;58.76;100484.94;4991028;28;20090;-64
2021/06/30 06:46:31;;;;;;;23.05;9.38;;;;;;;19.00;58.00;100488.75;4979508;28;20069;-61
2021/06/30 06:49:03;;;;;;;20.73;9.98;;;;;;;19.00;58.04;100505.75;4986765;28;20144;-64
2021/06/30 06:51:37;;;;;;;17.92;8.75;;;;;;;19.05;57.94;100499.91;4979596;28;20069;-62
2021/06/30 06:54:08;;;;;;;19.95;9.57;;;;;;;19.20;57.99;100507.00;4987511;28;20129;-63
2021/06/30 06:56:40;;;;;;;17.90;7.97;;;;;;;19.28;57.60;100505.28;4976168;28;20042;-61
2021/06/30 06:59:12;;;;;;;16.50;9.23;;;;;;;19.30;57.47;100498.13;4986247;28;20082;-61
2021/06/30 07:01:44;;;;;;;14.65;8.43;;;;;;;19.49;57.52;100496.88;4988054;28;20134;-62
2021/06/30 07:04:16;;;;;;;17.08;9.13;;;;;;;19.70;57.14;100483.59;4984542;28;20491;-61
2021/06/30 07:06:48;;;;;;;21.38;9.73;;;;;;;20.01;56.43;100500.19;4986947;28;20200;-62
2021/06/30 07:09:19;;;;;;;19.77;9.38;;;;;;;20.39;56.03;100498.38;4987838;28;20558;-62
2021/06/30 07:11:52;;;;;;;20.58;8.73;;;;;;;20.64;55.67;100496.47;4986637;28;20134;-62
2021/06/30 07:14:23;;;;;;;19.38;8.82;;;;;;;20.85;55.17;100493.56;4996091;28;20130;-62
2021/06/30 07:16:55;;;;;;;20.48;8.07;;;;;;;20.94;54.91;100499.97;4989376;28;20120;-63
2021/06/30 07:19:27;;;;;;;15.75;7.93;;;;;;;21.08;54.47;100491.97;4988130;28;20648;-62
2021/06/30 07:21:59;;;;;;;12.73;7.38;;;;;;;21.39;54.21;100508.44;4985909;28;20046;-60
2021/06/30 07:24:30;;;;;;;12.98;7.05;;;;;;;21.81;53.40;100528.06;4979866;28;20082;-61
2021/06/30 07:27:02;;;;;;;13.00;7.03;;;;;;;22.19;52.59;100526.88;4993328;28;20093;-63
2021/06/30 07:29:34;;;;;;;21.67;8.18;;;;;;;21.99;52.19;100517.28;4991391;28;20469;-62
2021/06/30 07:32:06;;;;;;;14.05;7.93;;;;;;;21.97;52.03;100517.63;4983415;28;20130;-62
2021/06/30 07:34:38;;;;;;;17.23;9.15;;;;;;;22.03;52.17;100517.41;5005704;28;20129;-63
2021/06/30 07:37:10;;;;;;;15.90;8.77;;;;;;;22.21;51.75;100518.78;4992449;28;20423;-63
2021/06/30 07:39:42;;;;;;;18.85;8.98;;;;;;;22.42;51.25;100522.25;4977682;28;20521;-61
2021/06/30 07:42:14;;;;;;;13.82;7.47;;;;;;;22.21;51.40;100487.50;4975560;28;20271;-61
2021/06/30 07:44:46;;;;;;;17.83;9.35;;;;;;;22.68;50.80;100512.44;4993122;28;20064;-63
2021/06/30 07:47:13;;;;;;;17.48;9.13;;;;;;;22.83;50.62;100530.72;4992222;28;20125;-62
2021/06/30 07:49:40;;;;;;;17.73;9.23;;;;;;;22.62;50.61;100494.78;4983586;28;20050;-64
2021/06/30 07:52:07;;;;;;;15.70;8.77;;;;;;;22.85;50.22;100522.66;4986824;28;20126;-62
2021/06/30 07:54:34;;;;;;;18.90;8.95;;;;;;;23.04;49.96;100531.38;4987712;28;20047;-62
2021/06/30 07:57:00;;;;;;;16.35;7.63;;;;;;;23.28;49.24;100495.34;4994196;28;20455;-62
2021/06/30 07:59:27;;;;;;;13.90;7.72;;;;;;;23.59;48.58;100514.44;4994801;28;20089;-62
2021/06/30 08:01:54;;;;;;;16.00;8.23;;;;;;;23.73;48.71;100517.69;4990513;28;20558;-62
2021/06/30 08:04:21;;;;;;;19.05;7.90;;;;;;;23.70;48.51;100512.72;4982642;28;20134;-63
2021/06/30 08:06:49;;;;;;;19.42;8.07;;;;;;;23.95;47.83;100496.16;4978200;28;20129;-62
2021/06/30 08:09:16;;;;;;;18.65;8.15;;;;;;;23.92;47.36;100496.09;4996488;28;20121;-61
2021/06/30 08:11:58;;;;;;;14.15;8.18;;;;;;;23.76;47.52;100499.81;4999272;28;20062;-61
2021/06/30 08:14:25;;;;;;;14.65;8.38;;;;;;;23.91;47.79;100512.38;4997274;28;20121;-63
2021/06/30 08:16:52;;;;;;;14.85;7.63;;;;;;;24.10;47.62;100505.88;4984067;28;20396;-61
2021/06/30 08:19:19;;;;;;;16.88;7.18;;;;;;;24.32;47.34;100493.72;4987193;28;20046;-62
2021/06/30 08:21:46;;;;;;;14.70;7.22;;;;;;;24.83;46.73;100504.97;4990330;28;20136;-62
2021/06/30 08:24:14;;;;;;;16.10;7.68;;;;;;;25.34;45.75;100505.94;5004079;28;20450;-62
2021/06/30 08:26:41;;;;;;;13.45;7.78;;;;;;;25.50;45.37;100496.00;4992761;28;20134;-62
2021/06/30 08:29:08;;;;;;;12.48;6.47;;;;;;;25.81;44.68;100504.66;4985914;28;20073;-62
2021/06/30 08:31:35;;;;;;;18.45;7.40;;;;;;;25.92;44.16;100499.94;4986088;28;20479;-62
2021/06/30 08:34:02;;;;;;;16.45;7.75;;;;;;;26.06;43.96;100511.56;4986461;28;20153;-62
2021/06/30 08:36:29;;;;;;;13.70;7.18;;;;;;;26.06;43.87;100500.13;4991644;28;20455;-62
2021/06/30 08:38:56;;;;;;;14.27;7.57;;;;;;;26.26;43.50;100518.00;4993412;28;20054;-62
2021/06/30 08:41:23;;;;;;;12.80;6.90;;;;;;;26.69;42.71;100518.53;4979230;28;20061;-62
2021/06/30 08:43:51;;;;;;;14.10;6.82;;;;;;;27.13;42.21;100521.50;4986441;28;20049;-62
2021/06/30 08:46:21;;;;;;;14.48;6.95;;;;;;;27.29;41.65;100498.31;4986108;28;20070;-63
2021/06/30 08:48:51;;;;;;;12.13;6.10;;;;;;;27.65;41.37;100510.88;4983011;28;20042;-63
2021/06/30 08:51:23;;;;;;;11.80;6.43;;;;;;;27.93;40.78;100500.84;4992867;28;20135;-63
2021/06/30 08:53:54;;;;;;;14.00;6.28;;;;;;;28.15;40.37;100512.50;4987648;28;20136;-63
2021/06/30 08:56:30;;;;;;;10.98;6.07;;;;;;;28.25;39.92;100508.84;4987967;28;20137;-63
2021/06/30 08:58:59;;;;;;;11.57;6.47;;;;;;;28.29;40.03;100507.63;4992592;28;20126;-63
2021/06/30 09:01:27;;;;;;;13.50;7.28;;;;;;;28.29;39.30;100504.75;4990161;28;20145;-63
2021/06/30 09:03:56;;;;;;;14.57;8.10;;;;;;;27.83;39.26;100504.50;4976607;28;20517;-63
2021/06/30 09:06:25;;;;;;;19.55;8.30;;;;;;;27.14;40.34;100503.06;4985653;28;20064;-62
2021/06/30 09:08:52;;;;;;;12.90;7.93;;;;;;;26.57;41.33;100508.19;4989530;28;20053;-63
2021/06/30 09:11:21;;;;;;;10.68;7.25;;;;;;;26.19;41.35;100487.22;4987886;28;20054;-63
2021/06/30 09:13:49;;;;;;;12.30;7.40;;;;;;;25.87;42.17;100478.19;5003770;28;20120;-62
2021/06/30 09:16:17;;;;;;;15.47;6.17;;;;;;;26.00;42.63;100504.53;4981928;28;20078;-63
2021/06/30 09:18:48;;;;;;;14.00;7.43;;;;;;;26.14;42.16;100484.69;4989715;28;21280;-63
2021/06/30 09:21:20;;;;;;;16.05;8.15;;;;;;;26.38;41.72;100488.28;4988795;28;20042;-62
2021/06/30 09:23:58;;;;;;;19.50;8.35;;;;;;;26.42;42.16;100492.00;4989658;28;20487;-62
2021/06/30 09:26:26;;;;;;;12.65;7.72;;;;;;;26.36;42.40;100479.22;5002848;28;20058;-61
2021/06/30 09:29:06;;;;;;;17.08;8.90;;;;;;;26.44;41.97;100492.44;4975800;28;20066;-62
2021/06/30 09:31:34;;;;;;;15.52;8.07;;;;;;;26.42;42.17;100494.84;4991474;28;20570;-62
2021/06/30 09:34:01;;;;;;;15.88;9.32;;;;;;;26.37;42.04;100489.50;4989239;28;20636;-62
2021/06/30 09:36:42;;;;;;;17.13;10.25;;;;;;;26.11;42.28;100490.38;4990147;28;20134;-62
2021/06/30 09:39:11;;;;;;;18.63;10.15;;;;;;;26.10;42.76;100492.41;4994648;28;20058;-62
2021/06/30 09:41:39;;;;;;;16.40;10.57;;;;;;;25.91;42.87;100490.50;4987695;28;20667;-62
2021/06/30 09:44:13;;;;;;;14.45;9.30;;;;;;;25.85;42.78;100508.41;4987831;28;20379;-62
2021/06/30 09:46:42;;;;;;;14.80;9.05;;;;;;;25.68;43.16;100479.13;4998825;28;20070;-65
2021/06/30 09:49:15;;;;;;;16.75;9.15;;;;;;;25.72;43.10;100484.88;4997770;28;20046;-62
2021/06/30 09:51:44;;;;;;;15.63;9.40;;;;;;;25.90;43.05;100493.75;4993106;28;20125;-63
2021/06/30 09:54:14;;;;;;;16.23;9.38;;;;;;;25.96;43.06;100495.91;4992415;28;20047;-63
2021/06/30 09:57:06;;;;;;;16.70;9.23;;;;;;;25.99;43.46;100500.03;4989853;28;20153;-62
2021/06/30 09:59:36;;;;;;;21.08;9.52;;;;;;;26.04;42.96;100493.13;4987440;28;20053;-62
2021/06/30 10:02:05;;;;;;;18.90;8.50;;;;;;;26.09;42.98;100501.41;4983122;28;20104;-62
2021/06/30 10:04:39;;;;;;;15.38;8.30;;;;;;;26.27;42.63;100501.63;4985623;28;20044;-63
2021/06/30 10:07:13;;;;;;;14.57;8.43;;;;;;;26.64;42.00;100502.53;4985226;28;20081;-63
2021/06/30 10:10:07;;;;;;;17.10;8.60;;;;;;;26.75;42.13;100513.28;4983679;28;22435;-63
2021/06/30 10:12:35;;;;;;;14.95;8.88;;;;;;;26.82;41.66;100497.00;4985166;28;20062;-61
2021/06/30 10:15:06;;;;;;;13.85;8.80;;;;;;;27.02;41.25;100517.69;4987890;28;20054;-63
2021/06/30 10:17:32;;;;;;;17.75;9.43;;;;;;;26.92;41.58;100512.66;4978212;28;20078;-63
2021/06/30 10:20:02;;;;;;;15.75;8.80;;;;;;;27.08;40.78;100527.56;4979682;28;20057;-62
2021/06/30 10:22:29;;;;;;;14.93;8.07;;;;;;;26.89;41.09;100516.31;4977587;28;20549;-61
2021/06/30 10:24:57;;;;;;;16.73;8.43;;;;;;;27.19;41.27;100526.91;4985666;28;20121;-63
2021/06/30 10:27:25;;;;;;;17.27;9.07;;;;;;;27.55;40.54;100528.03;4985283;28;20050;-63
2021/06/30 10:29:54;;;;;;;15.00;10.10;;;;;;;27.59;40.44;100521.09;4986722;28;20072;-63
2021/06/30 10:32:22;;;;;;;14.70;8.73;;;;;;;27.53;40.16;100519.81;4992617;28;20476;-63
2021/06/30 10:34:49;;;;;;;18.17;9.32;;;;;;;27.53;40.45;100534.16;4985567;28;20052;-65
2021/06/30 10:37:23;;;;;;;18.48;9.15;;;;;;;27.50;40.36;100525.53;4987073;28;20662;-63
2021/06/30 10:39:56;;;;;;;18.63;10.40;;;;;;;27.88;40.09;100529.94;4984498;28;20085;-62
2021/06/30 10:42:34;;;;;;;18.88;9.60;;;;;;;28.05;39.27;100523.50;4988488;28;20404;-64
2021/06/30 10:45:11;;;;;;;18.58;9.52;;;;;;;28.32;39.55;100531.84;4986520;28;20592;-62
2021/06/30 10:47:45;;;;;;;17.30;9.20;;;;;;;28.62;38.82;100530.81;4977020;28;20137;-63
2021/06/30 10:50:27;;;;;;;16.80;8.43;;;;;;;28.61;38.87;100532.00;4980374;28;20092;-63
2021/06/30 10:53:03;;;;;;;15.57;8.65;;;;;;;28.84;38.54;100528.81;4986481;28;20054;-63
2021/06/30 10:55:31;;;;;;;18.33;8.73;;;;;;;29.14;38.24;100532.19;4978220;28;20130;-62
2021/06/30 10:58:10;;;;;;;15.05;9.15;;;;;;;29.13;38.09;100529.72;4995530;28;20074;-62
2021/06/30 11:00:39;;;;;;;13.57;8.00;;;;;;;29.05;38.33;100526.81;4982863;28;20050;-62
2021/06/30 11:03:25;;;;;;;17.90;9.10;;;;;;;29.13;38.14;100527.69;4984164;28;20502;-62
2021/06/30 11:06:22;;;;;;;18.23;9.32;;;;;;;29.13;38.18;100523.97;4985573;28;20038;-62
2021/06/30 11:09:08;;;;;;;17.13;9.23;;;;;;;29.26;38.16;100519.47;4986440;28;20499;-63
2021/06/30 11:11:35;;;;;;;16.60;9.32;;;;;;;29.35;38.04;100530.56;4984575;28;20129;-63
2021/06/30 11:14:17;;;;;;;15.50;8.18;;;;;;;29.56;37.65;100518.25;4982710;28;20112;-62
2021/06/30 11:16:49;;;;;;;18.58;10.40;;;;;;;29.77;36.85;100518.25;4986629;28;20537;-63
2021/06/30 11:19:19;;;;;;;16.02;10.25;;;;;;;29.89;36.89;100523.59;4985569;28;20142;-63
2021/06/30 11:22:04;;;;;;;21.38;11.23;;;;;;;29.99;36.54;100508.34;4986623;28;20125;-63
2021/06/30 11:27:14;;;;;;;14.02;8.52;;;;;;;30.06;36.50;100515.34;4989890;28;20128;-62
2021/06/30 11:30:03;;;;;;;13.63;7.82;;;;;;;30.18;36.37;100521.50;4988779;28;20193;-62
2021/06/30 11:32:31;;;;;;;15.20;8.15;;;;;;;30.37;35.81;100513.63;4984854;28;20097;-62
2021/06/30 11:35:00;;;;;;;14.43;7.13;;;;;;;30.60;35.47;100511.06;4980722;28;20046;-62
2021/06/30 11:37:28;;;;;;;12.27;6.78;;;;;;;30.49;35.59;100515.22;4986380;28;20050;-62
2021/06/30 11:39:58;;;;;;;12.32;6.90;;;;;;;30.29;35.25;100509.97;4982991;28;20085;-62
2021/06/30 11:42:32;;;;;;;11.60;7.20;;;;;;;30.05;35.72;100511.66;4977304;28;20585;-61